Time;durP1;ratioP1;P1;durP2;ratioP2;P2;SDS_P1;SDS_P2;PMS_P1;PMS_P2;Temp;Humidity;BMP_temperature;BMP_pressure;BME280_temperature;BME280_humidity;BME280_pressure;Samples;Min_cycle;Max_cycle;Signal;HPM_P1;HPM_P2
2024/01/20 00:01:44;;;;;;;51.72;26.83;;;-2.70;99.90;;;;;;5060810;28;20029;-73
2024/01/20 00:04:09;;;;;;;53.05;26.88;;;-2.70;99.90;;;;;;5056746;28;20364;-73
2024/01/20 00:06:35;;;;;;;53.85;25.58;;;-2.70;99.90;;;;;;5057895;28;20040;-73
2024/01/20 00:09:00;;;;;;;59.90;27.90;;;-2.70;99.90;;;;;;5074533;28;20028;-77
2024/01/20 00:11:26;;;;;;;52.40;25.33;;;-2.70;99.90;;;;;;5073270;28;20024;-77
2024/01/20 00:13:52;;;;;;;57.08;27.27;;;-2.60;99.90;;;;;;5054526;28;20021;-78
2024/01/20 00:16:17;;;;;;;51.45;26.25;;;-2.70;99.90;;;;;;5070280;28;20020;-77
2024/01/20 00:18:43;;;;;;;45.53;24.13;;;-2.70;99.90;;;;;;5073863;28;20059;-74
2024/01/20 00:21:08;;;;;;;62.25;28.80;;;-2.70;99.90;;;;;;5059789;28;20025;-77
2024/01/20 00:23:34;;;;;;;62.65;27.10;;;-2.70;99.90;;;;;;5055818;28;20040;-77
2024/01/20 00:26:00;;;;;;;58.00;27.63;;;-2.70;99.90;;;;;;5055573;28;20024;-77
2024/01/20 00:28:25;;;;;;;46.47;26.75;;;-2.70;99.90;;;;;;5055953;28;20473;-73
2024/01/20 00:30:51;;;;;;;55.22;28.20;;;-2.70;99.90;;;;;;5055554;28;20025;-74
2024/01/20 00:33:17;;;;;;;51.03;26.92;;;-2.70;99.90;;;;;;5064688;28;20020;-74
2024/01/20 00:35:44;;;;;;;56.90;26.88;;;-2.70;99.90;;;;;;5058061;28;20024;-74
2024/01/20 00:38:09;;;;;;;49.75;28.70;;;-2.70;99.90;;;;;;5054666;28;20094;-74
2024/01/20 00:40:35;;;;;;;59.10;27.63;;;-2.70;99.90;;;;;;5067374;28;20028;-74
2024/01/20 00:43:00;;;;;;;57.42;28.65;;;-2.70;99.90;;;;;;5054312;28;20036;-78
2024/01/20 00:45:26;;;;;;;61.85;28.50;;;-2.70;99.90;;;;;;5057544;28;20104;-74
2024/01/20 00:47:52;;;;;;;61.78;27.98;;;-2.60;99.90;;;;;;5064839;28;20381;-78
2024/01/20 00:50:18;;;;;;;65.68;29.25;;;-2.60;99.90;;;;;;5055787;28;20017;-77
2024/01/20 00:52:44;;;;;;;59.42;27.60;;;-2.60;99.90;;;;;;5073770;28;20382;-74
2024/01/20 00:55:10;;;;;;;55.13;26.90;;;-2.60;99.90;;;;;;5074354;28;20108;-73
2024/01/20 00:57:36;;;;;;;49.03;25.98;;;-2.60;99.90;;;;;;5073503;28;20371;-74
2024/01/20 01:00:07;;;;;;;58.38;27.27;;;-2.60;99.90;;;;;;5073359;28;20094;-78
2024/01/20 01:02:32;;;;;;;56.38;28.45;;;-2.70;99.90;;;;;;5073110;28;20111;-77
2024/01/20 01:04:58;;;;;;;54.63;27.33;;;-2.60;99.90;;;;;;5060726;28;20100;-77
2024/01/20 01:07:24;;;;;;;52.22;26.80;;;-2.70;99.90;;;;;;5073554;28;20023;-77
2024/01/20 01:09:50;;;;;;;54.90;24.80;;;-2.60;99.90;;;;;;5072835;28;20021;-77
2024/01/20 01:12:15;;;;;;;45.58;21.23;;;-2.60;99.90;;;;;;5072066;28;20024;-77
2024/01/20 01:14:41;;;;;;;51.10;24.33;;;-2.60;99.90;;;;;;5073859;28;20021;-73
2024/01/20 01:17:07;;;;;;;50.03;23.55;;;-2.70;99.90;;;;;;5074513;28;20027;-77
2024/01/20 01:19:32;;;;;;;47.08;22.50;;;-2.60;99.90;;;;;;5071932;28;20048;-77
2024/01/20 01:21:58;;;;;;;44.40;21.88;;;-2.70;99.90;;;;;;5074251;28;20096;-73
2024/01/20 01:24:24;;;;;;;39.47;20.42;;;-2.70;99.90;;;;;;5073077;28;20094;-73
2024/01/20 01:26:49;;;;;;;42.92;20.58;;;-2.70;99.90;;;;;;5074187;28;20031;-73
2024/01/20 01:29:15;;;;;;;41.35;20.75;;;-2.70;99.90;;;;;;5071496;28;20017;-73
2024/01/20 01:31:42;;;;;;;35.05;18.98;;;-2.70;99.90;;;;;;5073916;28;20031;-73
2024/01/20 01:34:07;;;;;;;43.28;19.92;;;-2.70;99.90;;;;;;5071732;28;20023;-78
2024/01/20 01:36:33;;;;;;;41.95;19.60;;;-2.70;99.90;;;;;;5062123;28;20024;-77
2024/01/20 01:38:59;;;;;;;35.78;18.73;;;-2.70;99.90;;;;;;5070834;28;20041;-77
2024/01/20 01:41:24;;;;;;;37.25;19.38;;;-2.70;99.90;;;;;;5063469;28;20020;-77
2024/01/20 01:43:50;;;;;;;42.88;18.38;;;-2.80;99.90;;;;;;5058461;28;20033;-73
2024/01/20 01:46:15;;;;;;;41.20;18.58;;;-2.80;99.90;;;;;;5063331;28;20021;-73
2024/01/20 01:48:41;;;;;;;39.53;18.30;;;-2.80;99.90;;;;;;5059128;28;20462;-74
2024/01/20 01:51:07;;;;;;;37.75;18.55;;;-2.70;99.90;;;;;;5064878;28;20478;-74
2024/01/20 01:53:33;;;;;;;36.60;18.00;;;-2.70;99.90;;;;;;5065578;28;20103;-78
2024/01/20 01:56:03;;;;;;;39.80;17.92;;;-2.80;99.90;;;;;;5054200;28;20119;-73
2024/01/20 01:58:29;;;;;;;30.98;16.30;;;-2.80;99.90;;;;;;5054015;28;20037;-73
2024/01/20 02:00:55;;;;;;;36.08;17.20;;;-2.80;99.90;;;;;;5053953;28;20032;-73
2024/01/20 02:03:21;;;;;;;33.92;16.77;;;-2.90;99.90;;;;;;5052635;28;20021;-73
2024/01/20 02:05:47;;;;;;;31.42;16.02;;;-3.00;99.90;;;;;;5062715;28;20100;-79
2024/01/20 02:08:12;;;;;;;34.05;17.23;;;-3.00;99.90;;;;;;5071766;28;20143;-79
2024/01/20 02:10:38;;;;;;;34.25;15.00;;;-3.10;99.90;;;;;;5072960;28;20473;-75
2024/01/20 02:13:05;;;;;;;31.08;15.52;;;-3.20;99.90;;;;;;5072078;28;20021;-78
2024/01/20 02:15:33;;;;;;;34.75;15.75;;;-3.20;99.90;;;;;;5072639;28;20021;-72
2024/01/20 02:17:59;;;;;;;31.23;15.90;;;-3.30;99.90;;;;;;5069812;28;20045;-74
2024/01/20 02:20:24;;;;;;;29.40;14.88;;;-3.30;99.90;;;;;;5071325;28;20074;-79
2024/01/20 02:22:50;;;;;;;36.25;16.33;;;-3.40;99.90;;;;;;5069724;28;20046;-78
2024/01/20 02:25:16;;;;;;;35.65;16.55;;;-3.50;99.90;;;;;;5071397;28;20020;-74
2024/01/20 02:27:42;;;;;;;30.40;15.43;;;-3.50;99.90;;;;;;5064402;28;20067;-78
2024/01/20 02:30:08;;;;;;;33.92;15.07;;;-3.50;99.90;;;;;;5057363;28;20094;-74
2024/01/20 02:32:34;;;;;;;27.60;15.20;;;-3.60;99.90;;;;;;5059221;28;20074;-77
2024/01/20 02:34:59;;;;;;;37.53;14.82;;;-3.60;99.90;;;;;;5055270;28;20037;-74
2024/01/20 02:37:25;;;;;;;30.70;14.80;;;-3.70;99.90;;;;;;5059157;28;20032;-74
2024/01/20 02:39:50;;;;;;;29.27;14.32;;;-3.70;99.90;;;;;;5056718;28;20033;-78
2024/01/20 02:42:16;;;;;;;31.40;13.80;;;-3.80;99.90;;;;;;5059640;28;20013;-74
2024/01/20 02:44:42;;;;;;;24.05;13.77;;;-3.80;99.90;;;;;;5056833;28;20429;-78
2024/01/20 02:47:07;;;;;;;28.75;14.77;;;-3.90;99.90;;;;;;5059694;28;20493;-78
2024/01/20 02:49:34;;;;;;;35.83;15.25;;;-3.90;99.90;;;;;;5054732;28;20047;-73
2024/01/20 02:52:00;;;;;;;30.27;14.32;;;-4.00;99.90;;;;;;5059362;28;20029;-74
2024/01/20 02:54:25;;;;;;;25.10;15.02;;;-4.00;99.90;;;;;;5056674;28;20478;-74
2024/01/20 02:56:52;;;;;;;31.55;14.95;;;-4.10;99.90;;;;;;5059729;28;20108;-78
2024/01/20 02:59:17;;;;;;;32.42;14.27;;;-4.10;99.90;;;;;;5056541;28;20029;-78
2024/01/20 03:01:43;;;;;;;29.25;14.82;;;-4.20;99.90;;;;;;5058137;28;20091;-74
2024/01/20 03:04:08;;;;;;;32.90;15.55;;;-4.20;99.90;;;;;;5054494;28;20091;-74
2024/01/20 03:06:34;;;;;;;30.33;14.85;;;-4.20;99.90;;;;;;5052581;28;20083;-77
2024/01/20 03:09:00;;;;;;;51.10;15.40;;;-4.30;99.90;;;;;;5051685;28;20025;-77
2024/01/20 03:11:25;;;;;;;30.63;14.45;;;-4.40;99.90;;;;;;5052695;28;20017;-73
2024/01/20 03:13:51;;;;;;;29.70;15.40;;;-4.40;99.90;;;;;;5060173;28;20065;-73
2024/01/20 03:16:17;;;;;;;27.42;14.68;;;-4.50;99.90;;;;;;5060815;28;20496;-73
2024/01/20 03:18:42;;;;;;;28.35;14.65;;;-4.60;99.90;;;;;;5071979;28;20055;-73
2024/01/20 03:21:08;;;;;;;32.58;14.63;;;-4.60;99.90;;;;;;5071199;28;20027;-78
2024/01/20 03:23:34;;;;;;;26.92;13.63;;;-4.70;99.90;;;;;;5071371;28;20044;-73
2024/01/20 03:26:07;;;;;;;35.50;14.90;;;-4.80;99.90;;;;;;5070080;28;20028;-74
2024/01/20 03:28:33;;;;;;;23.80;14.30;;;-4.80;99.90;;;;;;5052633;28;20056;-74
2024/01/20 03:30:59;;;;;;;29.73;15.23;;;-4.80;99.90;;;;;;5052850;28;20111;-73
2024/01/20 03:33:24;;;;;;;32.97;14.48;;;-4.80;99.90;;;;;;5052702;28;20017;-78
2024/01/20 03:35:50;;;;;;;29.67;15.38;;;-4.90;99.90;;;;;;5052421;28;20027;-74
2024/01/20 03:38:17;;;;;;;27.45;13.70;;;-4.90;99.90;;;;;;5052911;28;20037;-74
2024/01/20 03:40:43;;;;;;;31.15;14.40;;;-4.90;99.90;;;;;;5051503;28;20017;-78
2024/01/20 03:43:12;;;;;;;31.23;15.05;;;-5.00;99.90;;;;;;5052507;28;20056;-73
2024/01/20 03:45:40;;;;;;;27.05;14.48;;;-5.00;99.90;;;;;;5055337;28;20024;-78
2024/01/20 03:48:05;;;;;;;27.40;13.25;;;-5.10;99.90;;;;;;5062069;28;20383;-73
2024/01/20 03:50:31;;;;;;;28.13;14.30;;;-5.10;99.90;;;;;;5055280;28;20017;-73
2024/01/20 03:52:57;;;;;;;32.92;13.45;;;-5.10;99.90;;;;;;5062279;28;20426;-78
2024/01/20 03:55:22;;;;;;;24.58;14.35;;;-5.10;99.90;;;;;;5064094;28;20531;-73
2024/01/20 03:57:48;;;;;;;30.23;15.70;;;-5.10;99.90;;;;;;5050673;28;20475;-78
2024/01/20 04:00:14;;;;;;;28.83;14.60;;;-5.20;99.90;;;;;;5051856;28;20021;-78
2024/01/20 04:02:40;;;;;;;30.23;15.57;;;-5.20;99.90;;;;;;5050552;28;20498;-78
2024/01/20 04:05:06;;;;;;;31.15;14.80;;;-5.20;99.90;;;;;;5051903;28;20021;-78
2024/01/20 04:07:32;;;;;;;32.15;16.88;;;-5.20;99.90;;;;;;5051852;28;20017;-72
2024/01/20 04:09:57;;;;;;;32.38;16.20;;;-5.20;99.90;;;;;;5055812;28;20493;-72
2024/01/20 04:12:24;;;;;;;28.48;15.60;;;-5.20;99.90;;;;;;5071618;28;20485;-73
2024/01/20 04:14:49;;;;;;;32.80;16.70;;;-5.20;99.90;;;;;;5055406;28;20381;-77
2024/01/20 04:17:15;;;;;;;42.05;20.60;;;-5.20;99.90;;;;;;5052068;28;20013;-73
2024/01/20 04:19:41;;;;;;;36.47;20.70;;;-5.10;99.90;;;;;;5064964;28;20072;-74
2024/01/20 04:22:07;;;;;;;33.42;17.48;;;-5.10;99.90;;;;;;5070640;28;20521;-78
2024/01/20 04:24:32;;;;;;;35.58;16.63;;;-5.10;99.90;;;;;;5071011;28;20737;-74
2024/01/20 04:26:58;;;;;;;33.22;16.65;;;-5.00;99.90;;;;;;5074232;28;20100;-74
2024/01/20 04:29:23;;;;;;;29.45;15.07;;;-5.00;99.90;;;;;;5072956;28;20025;-78
2024/01/20 04:31:49;;;;;;;37.85;17.20;;;-5.00;99.90;;;;;;5061201;28;20021;-78
2024/01/20 04:34:15;;;;;;;28.65;15.73;;;-4.90;99.90;;;;;;5055592;28;20032;-78
2024/01/20 04:36:40;;;;;;;31.10;15.45;;;-5.00;99.90;;;;;;5053885;28;20028;-74
2024/01/20 04:39:06;;;;;;;27.50;14.95;;;-5.00;99.90;;;;;;5054282;28;20132;-73
2024/01/20 04:41:32;;;;;;;29.45;14.75;;;-5.00;99.90;;;;;;5056200;28;20021;-73
2024/01/20 04:43:57;;;;;;;30.67;15.57;;;-5.00;99.90;;;;;;5054764;28;20029;-78
2024/01/20 04:46:23;;;;;;;34.25;15.75;;;-5.10;99.90;;;;;;5055783;28;20413;-78
2024/01/20 04:48:49;;;;;;;33.20;15.88;;;-5.10;99.90;;;;;;5054534;28;20055;-78
2024/01/20 04:51:14;;;;;;;33.40;15.18;;;-5.20;99.90;;;;;;5055629;28;20053;-78
2024/01/20 04:53:40;;;;;;;43.78;20.95;;;-5.20;99.90;;;;;;5055229;28;20017;-78
2024/01/20 04:56:06;;;;;;;34.03;17.98;;;-5.20;99.90;;;;;;5068196;28;20020;-73
2024/01/20 04:58:32;;;;;;;33.90;16.95;;;-5.20;99.90;;;;;;5053734;28;20029;-78
2024/01/20 05:00:57;;;;;;;39.35;17.80;;;-5.20;99.90;;;;;;5055060;28;20021;-78
2024/01/20 05:03:23;;;;;;;34.58;16.70;;;-5.30;99.90;;;;;;5055278;28;20067;-77
2024/01/20 05:05:49;;;;;;;33.28;16.98;;;-5.30;99.90;;;;;;5053851;28;20025;-78
2024/01/20 05:08:15;;;;;;;40.20;16.05;;;-5.40;99.90;;;;;;5066709;28;20087;-78
2024/01/20 05:10:41;;;;;;;38.97;17.85;;;-5.40;99.90;;;;;;5054923;28;20036;-78
2024/01/20 05:13:06;;;;;;;31.77;15.38;;;-5.40;99.90;;;;;;5054881;28;20470;-73
2024/01/20 05:15:32;;;;;;;35.00;17.83;;;-5.40;99.90;;;;;;5066232;28;20490;-78
2024/01/20 05:17:58;;;;;;;57.13;23.00;;;-5.40;99.90;;;;;;5073501;28;20529;-79
2024/01/20 05:20:24;;;;;;;44.72;22.48;;;-5.40;99.90;;;;;;5072999;28;20482;-78
2024/01/20 05:22:49;;;;;;;32.22;16.52;;;-5.40;99.90;;;;;;5072791;28;20035;-73
2024/01/20 05:25:15;;;;;;;32.33;16.35;;;-5.40;99.90;;;;;;5074338;28;20025;-73
2024/01/20 05:27:41;;;;;;;44.47;17.13;;;-5.30;99.90;;;;;;5060857;28;20028;-74
2024/01/20 05:30:07;;;;;;;44.17;21.70;;;-5.30;99.90;;;;;;5064774;28;20475;-74
2024/01/20 05:32:33;;;;;;;37.50;17.13;;;-5.20;99.90;;;;;;5063169;28;20021;-74
2024/01/20 05:34:59;;;;;;;31.80;15.52;;;-5.10;99.90;;;;;;5057341;28;20029;-75
2024/01/20 05:37:24;;;;;;;31.33;16.63;;;-5.10;99.90;;;;;;5056370;28;20540;-75
2024/01/20 05:39:51;;;;;;;30.38;15.60;;;-5.10;99.90;;;;;;5055828;28;20072;-78
2024/01/20 05:42:17;;;;;;;33.00;16.90;;;-5.00;99.90;;;;;;5047630;28;20020;-74
2024/01/20 05:44:43;;;;;;;33.13;16.58;;;-5.00;99.90;;;;;;5058359;28;20029;-74
2024/01/20 05:47:09;;;;;;;29.92;14.30;;;-4.90;99.90;;;;;;5058714;28;20075;-73
2024/01/20 05:49:35;;;;;;;30.23;16.48;;;-4.90;99.90;;;;;;5057967;28;20021;-74
2024/01/20 05:52:01;;;;;;;34.97;15.48;;;-4.80;99.90;;;;;;5057593;28;20491;-78
2024/01/20 05:54:26;;;;;;;31.80;15.73;;;-4.80;99.90;;;;;;5056746;28;20031;-73
2024/01/20 05:56:52;;;;;;;23.73;12.90;;;-4.80;99.90;;;;;;5061652;28;20028;-73
2024/01/20 05:59:21;;;;;;;21.52;13.80;;;-4.70;99.90;;;;;;5061103;28;20457;-73
2024/01/20 06:01:50;;;;;;;24.77;12.48;;;-4.70;99.90;;;;;;5060094;28;21216;-77
2024/01/20 06:04:17;;;;;;;31.65;16.73;;;-4.70;99.90;;;;;;5062161;28;20020;-78
2024/01/20 06:06:45;;;;;;;26.45;15.07;;;-4.70;99.90;;;;;;5060617;28;20103;-74
2024/01/20 06:09:11;;;;;;;23.00;14.13;;;-4.60;99.90;;;;;;5066639;28;20024;-74
2024/01/20 06:11:36;;;;;;;24.98;14.68;;;-4.60;99.90;;;;;;5053912;28;20378;-73
2024/01/20 06:14:02;;;;;;;26.60;13.50;;;-4.60;99.90;;;;;;5051618;28;20028;-77
2024/01/20 06:16:27;;;;;;;26.50;15.00;;;-4.50;99.90;;;;;;5058872;28;20024;-78
2024/01/20 06:18:54;;;;;;;26.23;13.88;;;-4.50;99.90;;;;;;5059514;28;20049;-78
2024/01/20 06:21:23;;;;;;;28.65;13.73;;;-4.50;99.90;;;;;;5064021;28;20021;-77
2024/01/20 06:23:49;;;;;;;27.45;13.05;;;-4.40;99.90;;;;;;5047691;28;20028;-77
2024/01/20 06:26:15;;;;;;;23.20;13.95;;;-4.40;99.90;;;;;;5058236;28;20016;-77
2024/01/20 06:28:42;;;;;;;28.33;13.20;;;-4.40;99.90;;;;;;5053956;28;20025;-77
2024/01/20 06:31:07;;;;;;;28.70;13.93;;;-4.30;99.90;;;;;;5052706;28;20036;-73
2024/01/20 06:33:33;;;;;;;30.75;14.43;;;-4.30;99.90;;;;;;5066951;28;20477;-73
2024/01/20 06:35:59;;;;;;;28.75;15.52;;;-4.30;99.90;;;;;;5058415;28;20071;-72
2024/01/20 06:38:25;;;;;;;32.45;13.32;;;-4.20;99.90;;;;;;5070403;28;20093;-73
2024/01/20 06:40:50;;;;;;;27.67;14.52;;;-4.20;99.90;;;;;;5056860;28;20052;-74
2024/01/20 06:43:16;;;;;;;39.53;17.95;;;-4.20;99.90;;;;;;5061637;28;20536;-77
2024/01/20 06:45:42;;;;;;;28.75;14.07;;;-4.10;99.90;;;;;;5072298;28;20040;-78
2024/01/20 06:48:09;;;;;;;28.70;15.20;;;-4.10;99.90;;;;;;5067873;28;20382;-74
2024/01/20 06:50:39;;;;;;;29.42;14.60;;;-4.10;99.90;;;;;;5053042;28;20013;-78
2024/01/20 06:53:05;;;;;;;41.70;17.77;;;-4.10;99.90;;;;;;5052773;28;20021;-75
2024/01/20 06:55:30;;;;;;;41.22;15.63;;;-4.00;99.90;;;;;;5053820;28;20043;-75
2024/01/20 06:57:56;;;;;;;30.05;14.60;;;-4.00;99.90;;;;;;5059685;28;20059;-74
2024/01/20 07:00:23;;;;;;;32.00;14.52;;;-4.00;99.90;;;;;;5063432;28;20390;-75
2024/01/20 07:02:48;;;;;;;30.00;14.80;;;-3.90;99.90;;;;;;5059330;28;20028;-78
2024/01/20 07:05:15;;;;;;;27.40;17.27;;;-3.90;99.90;;;;;;5061493;28;20024;-74
2024/01/20 07:07:41;;;;;;;36.30;17.00;;;-3.90;99.90;;;;;;5060833;28;20115;-73
2024/01/20 07:10:08;;;;;;;35.97;15.55;;;-3.90;99.90;;;;;;5069499;28;20476;-74
2024/01/20 07:12:34;;;;;;;31.42;18.25;;;-3.80;99.90;;;;;;5056626;28;20028;-74
2024/01/20 07:15:00;;;;;;;28.95;15.70;;;-3.80;99.90;;;;;;5049644;28;20026;-77
2024/01/20 07:17:25;;;;;;;28.83;14.73;;;-3.80;99.90;;;;;;5063649;28;20025;-78
2024/01/20 07:19:51;;;;;;;27.75;14.55;;;-3.80;99.90;;;;;;5060296;28;20059;-74
2024/01/20 07:22:17;;;;;;;27.65;15.20;;;-3.70;99.90;;;;;;5071515;28;20051;-74
2024/01/20 07:24:43;;;;;;;32.97;13.85;;;-3.60;99.90;;;;;;5072343;28;20070;-78
2024/01/20 07:27:09;;;;;;;28.35;15.15;;;-3.60;99.90;;;;;;5068641;28;20036;-74
2024/01/20 07:29:35;;;;;;;29.45;14.57;;;-3.60;99.90;;;;;;5053496;28;20021;-78
2024/01/20 07:32:00;;;;;;;30.73;15.55;;;-3.60;99.90;;;;;;5052476;28;20086;-73
2024/01/20 07:34:26;;;;;;;43.17;15.35;;;-3.60;99.90;;;;;;5056332;28;20021;-77
2024/01/20 07:36:51;;;;;;;30.15;14.98;;;-3.60;99.90;;;;;;5059954;28;20079;-77
2024/01/20 07:39:17;;;;;;;34.83;18.38;;;-3.50;99.90;;;;;;5056298;28;20390;-78
2024/01/20 07:41:42;;;;;;;28.60;16.10;;;-3.40;99.90;;;;;;5059942;28;20024;-76
2024/01/20 07:44:08;;;;;;;26.75;14.52;;;-3.40;99.90;;;;;;5056600;28;20045;-77
2024/01/20 07:46:34;;;;;;;27.50;14.90;;;-3.40;99.90;;;;;;5063454;28;20017;-74
2024/01/20 07:48:59;;;;;;;29.33;15.57;;;-3.30;99.90;;;;;;5051852;28;20025;-75
2024/01/20 07:51:25;;;;;;;29.98;15.63;;;-3.30;99.90;;;;;;5051850;28;20017;-78
2024/01/20 07:53:50;;;;;;;35.47;17.75;;;-3.20;99.90;;;;;;5061872;28;20112;-78
2024/01/20 07:56:16;;;;;;;32.58;15.57;;;-3.20;99.90;;;;;;5057361;28;20469;-78
2024/01/20 07:58:42;;;;;;;28.42;15.27;;;-3.20;99.90;;;;;;5059549;28;20025;-78
2024/01/20 08:01:07;;;;;;;23.23;14.10;;;-3.10;99.90;;;;;;5063303;28;20012;-78
2024/01/20 08:03:33;;;;;;;34.08;14.60;;;-3.00;99.90;;;;;;5057622;28;20021;-75
2024/01/20 08:06:00;;;;;;;30.35;14.95;;;-3.00;99.90;;;;;;5062008;28;20033;-78
2024/01/20 08:08:26;;;;;;;25.10;14.57;;;-2.90;99.90;;;;;;5064226;28;20078;-74
2024/01/20 08:10:52;;;;;;;27.75;14.13;;;-2.90;99.90;;;;;;5066711;28;20028;-78
2024/01/20 08:13:18;;;;;;;30.80;14.68;;;-2.80;99.90;;;;;;5057216;28;20515;-77
2024/01/20 08:15:44;;;;;;;28.90;14.05;;;-2.80;99.90;;;;;;5061967;28;20421;-74
2024/01/20 08:18:09;;;;;;;21.90;13.25;;;-2.80;99.90;;;;;;5059161;28;20044;-74
2024/01/20 08:20:35;;;;;;;29.20;13.13;;;-2.70;99.90;;;;;;5064003;28;20041;-77
2024/01/20 08:23:01;;;;;;;29.95;16.92;;;-2.70;99.90;;;;;;5062287;28;20036;-74
2024/01/20 08:25:27;;;;;;;29.92;14.75;;;-2.70;99.90;;;;;;5069811;28;20056;-75
2024/01/20 08:27:52;;;;;;;28.67;14.07;;;-2.60;99.90;;;;;;5069668;28;20377;-77
2024/01/20 08:30:18;;;;;;;32.45;14.85;;;-2.60;99.90;;;;;;5069182;28;20052;-77
2024/01/20 08:32:43;;;;;;;28.42;16.15;;;-2.60;99.90;;;;;;5061586;28;20031;-78
2024/01/20 08:35:11;;;;;;;26.35;14.48;;;-2.50;99.90;;;;;;5068739;28;20040;-78
2024/01/20 08:37:36;;;;;;;31.85;14.15;;;-2.50;99.90;;;;;;5054675;28;20100;-78
2024/01/20 08:40:02;;;;;;;27.55;14.13;;;-2.50;99.90;;;;;;5054152;28;20140;-78
2024/01/20 08:42:28;;;;;;;27.63;14.32;;;-2.50;99.90;;;;;;5053317;28;20095;-77
2024/01/20 08:44:54;;;;;;;24.52;11.88;;;-2.50;99.90;;;;;;5067916;28;20017;-75
2024/01/20 08:47:19;;;;;;;20.00;11.43;;;-2.50;99.90;;;;;;5075121;28;20039;-78
2024/01/20 08:49:51;;;;;;;24.25;12.60;;;-2.40;99.90;;;;;;5061230;28;20024;-78
2024/01/20 08:52:20;;;;;;;24.88;12.43;;;-2.40;99.90;;;;;;5055803;28;20029;-73
2024/01/20 08:54:46;;;;;;;22.85;13.43;;;-2.40;99.90;;;;;;5068572;28;20087;-73
2024/01/20 08:57:12;;;;;;;23.48;12.15;;;-2.40;99.90;;;;;;5059793;28;20052;-77
2024/01/20 08:59:38;;;;;;;23.98;11.70;;;-2.40;99.90;;;;;;5054589;28;20458;-74
2024/01/20 09:02:05;;;;;;;26.17;12.82;;;-2.40;99.90;;;;;;5067518;28;20462;-78
2024/01/20 09:04:31;;;;;;;21.40;11.18;;;-2.40;99.90;;;;;;5065028;28;20468;-78
2024/01/20 09:06:57;;;;;;;25.80;11.60;;;-2.40;99.90;;;;;;5054924;28;20078;-78
2024/01/20 09:09:22;;;;;;;24.80;12.48;;;-2.30;99.90;;;;;;5060523;28;21399;-78
2024/01/20 09:11:54;;;;;;;27.30;12.70;;;-2.30;99.90;;;;;;5062875;28;20013;-78
2024/01/20 09:14:19;;;;;;;32.97;13.73;;;-2.30;99.90;;;;;;5062482;28;20021;-79
2024/01/20 09:16:45;;;;;;;29.15;16.08;;;-2.20;99.90;;;;;;5054260;28;20021;-79
2024/01/20 09:19:10;;;;;;;24.35;14.55;;;-2.20;99.90;;;;;;5054222;28;20134;-79
2024/01/20 09:21:36;;;;;;;32.75;15.23;;;-2.10;99.90;;;;;;5055779;28;20099;-79
2024/01/20 09:24:02;;;;;;;28.55;14.18;;;-2.00;99.90;;;;;;5055863;28;20052;-79
2024/01/20 09:26:28;;;;;;;27.55;14.75;;;-2.00;99.90;;;;;;5057541;28;20435;-78
2024/01/20 09:28:53;;;;;;;27.98;13.82;;;-2.00;99.90;;;;;;5057284;28;20029;-79
2024/01/20 09:31:19;;;;;;;132.70;48.22;;;-1.90;99.90;;;;;;5059155;28;20033;-79
2024/01/20 09:33:45;;;;;;;37.05;16.27;;;-1.90;99.90;;;;;;5056780;28;20025;-79
2024/01/20 09:36:11;;;;;;;23.75;12.65;;;-1.90;99.90;;;;;;5056743;28;20031;-80
2024/01/20 09:38:37;;;;;;;45.85;19.73;;;-1.80;99.90;;;;;;5059182;28;20090;-75
2024/01/20 09:41:02;;;;;;;65.43;26.00;;;-1.80;99.90;;;;;;5051718;28;20036;-75
2024/01/20 09:43:29;;;;;;;34.00;15.13;;;-1.80;99.90;;;;;;5057838;28;20021;-75
2024/01/20 09:45:57;;;;;;;45.55;18.55;;;-1.70;99.90;;;;;;5058419;28;20029;-75
2024/01/20 09:48:23;;;;;;;27.27;12.88;;;-1.60;99.90;;;;;;5054979;28;20564;-74
2024/01/20 09:50:49;;;;;;;32.35;14.75;;;-1.60;99.90;;;;;;5051342;28;20036;-72
2024/01/20 09:53:17;;;;;;;49.10;19.58;;;-1.60;99.90;;;;;;5059877;28;20017;-78
2024/01/20 09:55:44;;;;;;;49.13;19.73;;;-1.50;99.90;;;;;;5065299;28;20027;-78
2024/01/20 09:58:16;;;;;;;39.22;18.50;;;-1.40;99.90;;;;;;5062987;28;20127;-73
2024/01/20 10:00:42;;;;;;;36.55;15.68;;;-1.30;99.90;;;;;;5066659;28;20020;-72
2024/01/20 10:03:09;;;;;;;33.95;15.40;;;-1.40;99.90;;;;;;5062045;28;20021;-72
2024/01/20 10:05:35;;;;;;;43.65;17.00;;;-1.40;99.90;;;;;;5043282;28;20040;-78
2024/01/20 10:08:01;;;;;;;36.58;14.32;;;-1.40;99.90;;;;;;5068793;28;20533;-77
2024/01/20 10:10:27;;;;;;;34.40;13.90;;;-1.40;99.90;;;;;;5070079;28;20024;-77
2024/01/20 10:12:54;;;;;;;95.93;32.65;;;-1.30;99.90;;;;;;5069154;28;20052;-72
2024/01/20 10:15:27;;;;;;;48.67;21.15;;;-1.40;99.90;;;;;;5068271;28;20036;-77
2024/01/20 10:17:54;;;;;;;32.67;13.23;;;-1.40;99.90;;;;;;5049205;28;20117;-78
2024/01/20 10:20:21;;;;;;;26.52;11.93;;;-1.40;99.90;;;;;;5049722;28;20025;-78
2024/01/20 10:22:48;;;;;;;29.38;12.73;;;-1.40;99.90;;;;;;5050801;28;20021;-72
2024/01/20 10:25:18;;;;;;;25.67;12.60;;;-1.30;99.90;;;;;;5052432;28;20017;-77
2024/01/20 10:27:49;;;;;;;29.48;14.23;;;-1.20;99.90;;;;;;5052870;28;20359;-77
2024/01/20 10:30:21;;;;;;;33.28;12.75;;;-1.20;99.90;;;;;;5055418;28;20360;-78
2024/01/20 10:32:48;;;;;;;21.17;11.23;;;-1.10;99.90;;;;;;5054766;28;20051;-77
2024/01/20 10:35:14;;;;;;;26.00;13.05;;;-1.10;99.90;;;;;;5057902;28;20027;-72
2024/01/20 10:37:46;;;;;;;26.25;13.25;;;-1.00;99.90;;;;;;5054732;28;20028;-72
2024/01/20 10:40:15;;;;;;;22.27;12.18;;;-1.10;99.90;;;;;;5058224;28;20024;-73
2024/01/20 10:42:45;;;;;;;28.38;13.38;;;-1.10;99.90;;;;;;5056056;28;20028;-79
2024/01/20 10:45:18;;;;;;;33.55;13.88;;;-1.00;99.90;;;;;;5058406;28;20017;-80
2024/01/20 10:48:15;;;;;;;27.33;12.43;;;-1.00;99.90;;;;;;5055877;28;20025;-73
2024/01/20 10:50:48;;;;;;;48.90;21.13;;;-0.90;99.90;;;;;;5054356;28;20031;-78
2024/01/20 10:53:13;;;;;;;42.55;18.15;;;-0.90;98.90;;;;;;5056574;28;20021;-79
2024/01/20 10:55:43;;;;;;;21.65;11.80;;;-0.80;98.80;;;;;;5055630;28;20029;-79
2024/01/20 10:58:10;;;;;;;31.13;14.88;;;-0.90;96.60;;;;;;5056401;28;20382;-73
2024/01/20 11:00:39;;;;;;;28.10;13.73;;;-0.80;95.70;;;;;;5054112;28;20025;-73
2024/01/20 11:03:06;;;;;;;25.38;14.23;;;-0.60;95.50;;;;;;5052974;28;20028;-74
2024/01/20 11:05:32;;;;;;;24.52;12.07;;;-0.60;95.00;;;;;;5053111;28;20027;-73
2024/01/20 11:08:07;;;;;;;27.20;12.57;;;-0.70;93.20;;;;;;5051707;28;20020;-74
2024/01/20 11:10:43;;;;;;;22.77;11.00;;;-0.70;93.10;;;;;;5065096;28;20020;-79
2024/01/20 11:13:14;;;;;;;25.98;14.70;;;-0.60;92.20;;;;;;5072802;28;20468;-79
2024/01/20 11:15:41;;;;;;;24.73;11.38;;;-0.60;91.70;;;;;;5064973;28;20025;-79
2024/01/20 11:18:19;;;;;;;23.83;11.48;;;-0.50;91.70;;;;;;5064980;28;20040;-73
2024/01/20 11:20:58;;;;;;;20.98;10.40;;;-0.50;91.60;;;;;;5058844;28;20038;-73
2024/01/20 11:23:27;;;;;;;21.05;10.93;;;-0.60;89.10;;;;;;5056227;28;20017;-73
2024/01/20 11:25:54;;;;;;;24.75;11.85;;;-0.70;89.20;;;;;;5054176;28;20099;-73
2024/01/20 11:28:32;;;;;;;27.10;12.07;;;-0.70;90.10;;;;;;5056033;28;20453;-73
2024/01/20 11:31:03;;;;;;;22.95;10.88;;;-0.70;89.80;;;;;;5052931;28;20431;-73
2024/01/20 11:33:30;;;;;;;24.65;11.93;;;-0.60;90.10;;;;;;5055512;28;20486;-79
2024/01/20 11:35:55;;;;;;;22.80;12.15;;;-0.60;90.00;;;;;;5059961;28;20075;-73
2024/01/20 11:38:21;;;;;;;28.23;14.38;;;-0.60;89.90;;;;;;5056739;28;20021;-79
2024/01/20 11:40:57;;;;;;;25.08;12.38;;;-0.60;89.90;;;;;;5057164;28;20031;-73
2024/01/20 11:43:23;;;;;;;23.83;10.88;;;-0.60;89.80;;;;;;5059746;28;20021;-79
2024/01/20 11:45:49;;;;;;;28.13;12.57;;;-0.60;89.00;;;;;;5071826;28;20440;-73
2024/01/20 11:48:17;;;;;;;24.20;11.82;;;-0.60;88.70;;;;;;5068392;28;20020;-73
2024/01/20 11:50:43;;;;;;;25.15;12.32;;;-0.50;89.00;;;;;;5065449;28;20082;-79
2024/01/20 11:53:09;;;;;;;28.45;12.63;;;-0.40;88.60;;;;;;5062613;28;20025;-73
2024/01/20 11:55:35;;;;;;;25.05;12.30;;;-0.30;88.40;;;;;;5060874;28;20017;-79
2024/01/20 11:58:01;;;;;;;25.42;11.70;;;-0.40;86.50;;;;;;5065713;28;20016;-73
2024/01/20 12:00:27;;;;;;;21.58;11.23;;;-0.30;86.60;;;;;;5065061;28;20064;-80
2024/01/20 12:02:53;;;;;;;27.05;11.02;;;-0.30;85.70;;;;;;5064749;28;20446;-80
2024/01/20 12:05:20;;;;;;;22.08;11.25;;;-0.30;85.00;;;;;;5058376;28;20422;-73
2024/01/20 12:07:46;;;;;;;19.15;10.65;;;-0.20;84.90;;;;;;5062215;28;20021;-80
2024/01/20 12:10:14;;;;;;;23.40;11.85;;;-0.20;84.80;;;;;;5059431;28;20021;-73
2024/01/20 12:12:40;;;;;;;23.42;11.73;;;-0.20;84.50;;;;;;5062848;28;20024;-73
2024/01/20 12:15:07;;;;;;;29.73;12.23;;;-0.10;84.00;;;;;;5058786;28;20047;-71
2024/01/20 12:17:32;;;;;;;22.27;10.80;;;-0.10;84.00;;;;;;5061213;28;20058;-71
2024/01/20 12:19:58;;;;;;;23.92;11.35;;;-0.10;83.00;;;;;;5056306;28;20463;-77
2024/01/20 12:22:24;;;;;;;30.85;14.75;;;-0.10;83.00;;;;;;5061666;28;20024;-74